createdAt,value
2023-04-27T00:00:06.445Z,10.90
2023-04-27T00:02:39.806Z,11.90
2023-04-27T00:05:11.982Z,12.20
2023-04-27T00:07:42.720Z,9.90
2023-04-27T00:10:13.703Z,11.00
2023-04-27T00:12:44.140Z,11.70
2023-04-27T00:15:14.873Z,9.50
2023-04-27T00:17:45.454Z,11.50
2023-04-27T00:20:15.934Z,14.00
2023-04-27T00:22:46.371Z,11.50
2023-04-27T00:25:16.839Z,13.40
2023-04-27T00:27:47.233Z,12.00
2023-04-27T00:30:17.913Z,14.10
2023-04-27T00:32:48.500Z,11.10
2023-04-27T00:35:20.283Z,12.10
2023-04-27T00:37:50.829Z,10.90
2023-04-27T00:40:22.868Z,10.80
2023-04-27T00:42:53.353Z,15.00
2023-04-27T00:45:24.030Z,11.40
2023-04-27T00:47:54.734Z,12.00
2023-04-27T00:50:30.760Z,13.20
2023-04-27T00:53:01.757Z,11.40
2023-04-27T00:55:32.257Z,10.00
2023-04-27T00:58:02.759Z,14.20
2023-04-27T01:00:33.312Z,13.60
2023-04-27T01:03:05.257Z,12.00
2023-04-27T01:05:37.392Z,13.10
2023-04-27T01:08:08.141Z,12.10
2023-04-27T01:10:39.121Z,12.50
2023-04-27T01:13:10.811Z,13.80
2023-04-27T01:15:42.070Z,14.10
2023-04-27T01:18:13.931Z,9.60
2023-04-27T01:20:45.226Z,11.20
2023-04-27T01:23:17.737Z,11.00
2023-04-27T01:25:48.302Z,11.10
2023-04-27T01:28:18.788Z,12.90
2023-04-27T01:30:49.286Z,13.10
2023-04-27T01:33:19.776Z,12.60
2023-04-27T01:38:21.442Z,12.00
2023-04-27T01:40:51.939Z,12.70
2023-04-27T01:43:24.612Z,14.40
2023-04-27T01:45:55.134Z,12.40
2023-04-27T01:48:25.712Z,13.30
2023-04-27T01:50:56.349Z,11.80
2023-04-27T01:53:26.835Z,11.70
2023-04-27T01:55:57.765Z,11.30
2023-04-27T01:58:28.882Z,11.20
2023-04-27T02:00:59.402Z,12.50
2023-04-27T02:03:29.998Z,11.80
2023-04-27T02:06:01.054Z,11.50
2023-04-27T02:08:31.530Z,14.30
2023-04-27T02:11:01.996Z,10.10
2023-04-27T02:13:32.441Z,13.70
2023-04-27T02:16:05.242Z,10.60
2023-04-27T02:18:36.224Z,9.60
2023-04-27T02:21:11.796Z,8.20
2023-04-27T02:23:42.549Z,10.10
2023-04-27T02:26:19.563Z,11.30
2023-04-27T02:28:50.354Z,10.10
2023-04-27T02:31:21.258Z,10.90
2023-04-27T02:33:51.791Z,8.50
2023-04-27T02:36:22.457Z,10.60
2023-04-27T02:38:52.920Z,11.70
2023-04-27T02:41:23.392Z,13.60
2023-04-27T02:43:54.104Z,9.20
2023-04-27T02:46:24.656Z,14.80
2023-04-27T02:48:57.696Z,11.10
2023-04-27T02:51:28.216Z,10.60
2023-04-27T02:53:58.688Z,11.20
2023-04-27T02:56:29.295Z,10.30
2023-04-27T02:58:59.753Z,10.00
2023-04-27T03:01:30.596Z,10.30
2023-04-27T03:04:01.338Z,9.90
2023-04-27T03:06:31.996Z,11.90
2023-04-27T03:09:03.757Z,12.40
2023-04-27T03:11:35.323Z,10.50
2023-04-27T03:14:08.306Z,9.80
2023-04-27T03:16:38.808Z,12.90
2023-04-27T03:19:09.276Z,9.30
2023-04-27T03:21:39.777Z,11.20
2023-04-27T03:24:10.826Z,9.90
2023-04-27T03:26:41.354Z,11.10
2023-04-27T03:29:11.927Z,8.90
2023-04-27T03:31:42.667Z,8.40
2023-04-27T03:34:13.187Z,9.00
2023-04-27T03:36:43.841Z,10.20
2023-04-27T03:39:14.531Z,11.60
2023-04-27T03:41:45.349Z,10.40
2023-04-27T03:44:16.067Z,8.50
2023-04-27T03:46:46.546Z,12.00
2023-04-27T03:49:17.080Z,13.60
2023-04-27T03:51:47.530Z,9.30
2023-04-27T03:54:18.730Z,12.10
2023-04-27T03:56:49.870Z,10.70
2023-04-27T03:59:20.710Z,10.80
2023-04-27T04:01:53.532Z,11.20
2023-04-27T04:04:24.397Z,25.50
2023-04-27T04:06:55.047Z,21.30
2023-04-27T04:09:26.212Z,14.70
2023-04-27T04:11:57.912Z,12.30
2023-04-27T04:14:30.034Z,12.70
2023-04-27T04:17:00.809Z,9.70
2023-04-27T04:19:31.312Z,13.00
2023-04-27T04:22:01.876Z,9.30
2023-04-27T04:24:32.594Z,15.90
2023-04-27T04:27:04.745Z,10.20
2023-04-27T04:29:35.219Z,9.00
2023-04-27T04:32:07.448Z,10.00
2023-04-27T04:37:07.118Z,9.60
2023-04-27T04:39:37.642Z,10.50
2023-04-27T04:42:08.401Z,10.30
2023-04-27T04:44:39.019Z,10.50
2023-04-27T04:47:10.197Z,9.00
2023-04-27T04:49:40.703Z,8.70
2023-04-27T04:52:11.633Z,9.20
2023-04-27T04:54:42.086Z,11.10
2023-04-27T04:57:12.693Z,10.40
2023-04-27T04:59:43.443Z,10.10
2023-04-27T05:02:15.478Z,12.50
2023-04-27T05:04:46.386Z,12.70
2023-04-27T05:07:20.918Z,10.00
2023-04-27T05:09:53.974Z,11.50
2023-04-27T05:12:24.511Z,11.00
2023-04-27T05:14:55.384Z,14.40
2023-04-27T05:17:25.918Z,12.60
2023-04-27T05:19:56.468Z,12.00
2023-04-27T05:22:26.936Z,11.60
2023-04-27T05:24:57.541Z,10.60
2023-04-27T05:27:28.080Z,10.90
2023-04-27T05:29:58.520Z,12.80
2023-04-27T05:32:29.056Z,10.70
2023-04-27T05:34:59.509Z,11.70
2023-04-27T05:37:29.976Z,11.00
2023-04-27T05:40:00.506Z,9.50
2023-04-27T05:42:31.021Z,13.00
2023-04-27T05:45:01.594Z,10.70
2023-04-27T05:47:32.363Z,8.40
2023-04-27T05:50:03.762Z,9.40
2023-04-27T05:52:35.352Z,13.90
2023-04-27T05:55:09.190Z,9.90
2023-04-27T06:00:12.686Z,8.20
2023-04-27T06:02:43.561Z,9.20
2023-04-27T06:05:14.398Z,8.50
2023-04-27T06:07:44.946Z,9.60
2023-04-27T06:10:16.494Z,12.00
2023-04-27T06:12:47.153Z,9.80
2023-04-27T06:15:17.924Z,9.10
2023-04-27T06:17:48.395Z,8.30
2023-04-27T06:20:19.076Z,9.80
2023-04-27T06:22:49.580Z,8.20
2023-04-27T06:25:20.065Z,10.20
2023-04-27T06:27:50.638Z,8.70
2023-04-27T06:30:21.207Z,9.80
2023-04-27T06:32:53.248Z,9.00
2023-04-27T06:35:24.385Z,11.30
2023-04-27T06:37:58.824Z,9.90
2023-04-27T06:40:29.517Z,12.50
2023-04-27T06:43:00.260Z,8.30
2023-04-27T06:45:30.854Z,8.20
2023-04-27T06:48:01.544Z,9.30
2023-04-27T06:50:32.064Z,10.20
2023-04-27T06:53:02.611Z,8.30
2023-04-27T06:55:33.227Z,10.40
2023-04-27T06:58:04.468Z,9.60
2023-04-27T07:00:35.184Z,11.00
2023-04-27T07:03:05.707Z,10.20
2023-04-27T07:05:37.688Z,10.60
2023-04-27T07:08:09.176Z,13.90
2023-04-27T07:10:39.972Z,12.20
2023-04-27T07:13:11.307Z,8.70
2023-04-27T07:15:43.154Z,10.40
2023-04-27T07:18:13.831Z,7.80
2023-04-27T07:20:44.830Z,10.50
2023-04-27T07:23:15.295Z,10.10
2023-04-27T07:25:46.528Z,11.00
2023-04-27T07:28:17.043Z,11.00
2023-04-27T07:30:47.923Z,6.60
2023-04-27T07:33:18.766Z,8.00
2023-04-27T07:35:50.371Z,7.30
2023-04-27T07:38:20.964Z,9.50
2023-04-27T07:40:51.423Z,8.00
2023-04-27T07:43:23.135Z,7.90
2023-04-27T07:45:54.543Z,7.10
2023-04-27T07:48:25.579Z,9.90
2023-04-27T07:50:57.277Z,11.30
2023-04-27T07:53:27.803Z,9.50
2023-04-27T07:55:58.264Z,9.30
2023-04-27T07:58:28.770Z,8.10
2023-04-27T08:00:59.263Z,8.20
2023-04-27T08:03:29.994Z,8.20
2023-04-27T08:06:01.073Z,6.70
2023-04-27T08:08:32.978Z,7.10
2023-04-27T08:11:03.473Z,8.80
2023-04-27T08:13:36.323Z,9.20
2023-04-27T08:16:07.630Z,6.80
2023-04-27T08:18:38.144Z,8.20
2023-04-27T08:21:08.702Z,7.30
2023-04-27T08:23:39.144Z,7.20
2023-04-27T08:26:09.673Z,7.80
2023-04-27T08:28:40.134Z,6.20
2023-04-27T08:31:10.604Z,9.90
2023-04-27T08:33:41.705Z,10.20
2023-04-27T08:36:12.497Z,6.00
2023-04-27T08:38:42.972Z,8.00
2023-04-27T08:41:21.848Z,7.80
2023-04-27T08:43:53.907Z,7.00
2023-04-27T08:46:27.190Z,9.20
2023-04-27T08:48:58.099Z,7.70
2023-04-27T08:51:29.154Z,8.90
2023-04-27T08:54:00.465Z,9.40
2023-04-27T08:56:32.776Z,5.90
2023-04-27T08:59:04.533Z,8.30
2023-04-27T09:01:36.495Z,7.80
2023-04-27T09:04:07.736Z,6.60
2023-04-27T09:06:38.481Z,5.80
2023-04-27T09:09:08.972Z,7.40
2023-04-27T09:11:40.810Z,9.60
2023-04-27T09:14:22.122Z,7.50
2023-04-27T09:16:59.317Z,8.00
2023-04-27T09:19:31.620Z,9.30
2023-04-27T09:22:10.896Z,7.40
2023-04-27T09:24:50.986Z,4.50
2023-04-27T09:27:23.516Z,6.40
2023-04-27T09:29:54.040Z,6.80
2023-04-27T09:32:24.653Z,6.70
2023-04-27T09:34:55.101Z,7.40
2023-04-27T09:37:27.093Z,9.70
2023-04-27T09:39:57.625Z,7.30
2023-04-27T09:42:28.158Z,7.40
2023-04-27T09:44:59.406Z,7.20
2023-04-27T09:47:30.193Z,5.90
2023-04-27T09:50:02.821Z,7.70
2023-04-27T09:52:34.793Z,6.40
2023-04-27T09:55:09.375Z,7.20
2023-04-27T09:57:46.796Z,8.60
2023-04-27T10:00:27.545Z,8.20
2023-04-27T10:03:16.910Z,9.80
2023-04-27T10:06:14.501Z,6.00
2023-04-27T10:08:45.552Z,5.50
2023-04-27T10:11:19.462Z,7.10
2023-04-27T10:13:56.665Z,6.90
2023-04-27T10:16:27.336Z,7.90
2023-04-27T10:18:58.303Z,8.10
2023-04-27T10:21:30.733Z,12.50
2023-04-27T10:24:09.721Z,6.60
2023-04-27T10:26:49.173Z,9.90
2023-04-27T10:29:20.564Z,7.70
2023-04-27T10:31:51.199Z,7.20
2023-04-27T10:34:22.189Z,9.40
2023-04-27T10:37:05.701Z,7.90
2023-04-27T10:39:48.752Z,6.50
2023-04-27T10:42:30.571Z,7.40
2023-04-27T10:45:01.305Z,7.30
2023-04-27T10:47:41.121Z,7.20
2023-04-27T10:50:14.464Z,9.50
2023-04-27T10:52:47.176Z,8.00
2023-04-27T10:55:20.261Z,8.70
2023-04-27T10:57:53.296Z,9.20
2023-04-27T11:00:28.515Z,8.70
2023-04-27T11:03:10.651Z,6.20
2023-04-27T11:05:41.361Z,5.40
2023-04-27T11:08:14.118Z,4.70
2023-04-27T11:10:50.024Z,8.40
2023-04-27T11:13:22.389Z,7.10
2023-04-27T11:18:24.737Z,8.20
2023-04-27T11:21:06.765Z,6.60
2023-04-27T11:23:38.623Z,7.50
2023-04-27T11:26:16.938Z,10.00
2023-04-27T11:29:00.056Z,8.60
2023-04-27T11:31:40.265Z,8.50
2023-04-27T11:34:11.278Z,9.40
2023-04-27T11:36:41.744Z,6.90
2023-04-27T11:39:21.874Z,7.90
2023-04-27T11:41:52.644Z,5.50
2023-04-27T11:44:28.565Z,7.80
2023-04-27T11:47:02.329Z,7.20
2023-04-27T11:49:33.063Z,6.60
2023-04-27T11:52:03.675Z,8.80
2023-04-27T11:54:34.189Z,6.80
2023-04-27T11:57:09.137Z,10.10
2023-04-27T11:59:39.584Z,8.60
2023-04-27T12:02:10.213Z,7.50
2023-04-27T12:04:41.063Z,7.60
2023-04-27T12:07:12.401Z,9.20
2023-04-27T12:09:43.438Z,8.50
2023-04-27T12:12:17.083Z,8.80
2023-04-27T12:14:47.656Z,9.00
2023-04-27T12:17:18.240Z,8.50
2023-04-27T12:19:49.041Z,7.00
2023-04-27T12:22:19.506Z,9.60
2023-04-27T12:24:49.966Z,8.00
2023-04-27T12:27:20.448Z,11.40
2023-04-27T12:29:50.955Z,7.00
2023-04-27T12:32:21.695Z,10.10
2023-04-27T12:34:52.456Z,6.20
2023-04-27T12:37:25.478Z,6.50
2023-04-27T12:39:57.253Z,8.60
2023-04-27T12:42:27.717Z,5.80
2023-04-27T12:44:58.161Z,8.60
2023-04-27T12:47:49.738Z,6.20
2023-04-27T12:50:19.522Z,7.20
2023-04-27T12:52:50.421Z,5.90
2023-04-27T12:55:32.021Z,5.10
2023-04-27T12:58:04.745Z,6.50
2023-04-27T13:00:35.532Z,6.30
2023-04-27T13:03:07.082Z,8.00
2023-04-27T13:05:37.833Z,4.90
2023-04-27T13:08:08.404Z,5.00
2023-04-27T13:10:38.985Z,7.00
2023-04-27T13:13:09.667Z,5.30
2023-04-27T13:15:40.423Z,5.50
2023-04-27T13:18:10.884Z,6.70
2023-04-27T13:20:41.375Z,6.50
2023-04-27T13:23:11.985Z,6.20
2023-04-27T13:25:42.511Z,5.40
2023-04-27T13:28:12.971Z,6.40
2023-04-27T13:30:43.517Z,6.40
2023-04-27T13:33:22.736Z,6.30
2023-04-27T13:35:54.321Z,6.00
2023-04-27T13:38:24.758Z,5.50
2023-04-27T13:40:56.192Z,7.30
2023-04-27T13:43:27.236Z,8.60
2023-04-27T13:46:00.764Z,14.90
2023-04-27T13:48:32.675Z,6.90
2023-04-27T13:51:03.256Z,6.00
2023-04-27T13:53:33.717Z,7.40
2023-04-27T13:56:04.184Z,8.60
2023-04-27T13:58:34.752Z,5.90
2023-04-27T14:01:05.490Z,7.20
2023-04-27T14:03:36.123Z,7.30
2023-04-27T14:06:07.504Z,6.50
2023-04-27T14:08:37.983Z,7.30
2023-04-27T14:11:08.487Z,8.70
2023-04-27T14:13:39.035Z,8.00
2023-04-27T14:16:10.784Z,7.10
2023-04-27T14:18:41.292Z,7.30
2023-04-27T14:21:11.714Z,5.20
2023-04-27T14:23:42.249Z,6.70
2023-04-27T14:26:12.688Z,7.30
2023-04-27T14:28:43.144Z,9.70
2023-04-27T14:31:14.452Z,6.50
2023-04-27T14:33:44.910Z,6.00
2023-04-27T14:36:15.656Z,5.70
2023-04-27T14:38:46.353Z,9.30
2023-04-27T14:41:16.820Z,8.40
2023-04-27T14:43:49.058Z,7.20
2023-04-27T14:46:21.604Z,8.00
2023-04-27T14:48:52.432Z,6.20
2023-04-27T14:51:23.092Z,5.80
2023-04-27T14:53:53.725Z,6.90
2023-04-27T14:56:24.623Z,9.60
2023-04-27T14:58:55.606Z,6.70
2023-04-27T15:01:26.218Z,11.10
2023-04-27T15:03:58.196Z,9.60
2023-04-27T15:06:30.359Z,8.60
2023-04-27T15:11:29.857Z,6.30
2023-04-27T15:14:00.620Z,5.80
2023-04-27T15:16:31.497Z,6.00
2023-04-27T15:19:02.048Z,7.20
2023-04-27T15:21:33.092Z,6.20
2023-04-27T15:24:03.520Z,7.80
2023-04-27T15:26:34.000Z,8.20
2023-04-27T15:29:05.140Z,7.60
2023-04-27T15:31:35.715Z,5.40
2023-04-27T15:34:06.305Z,7.00
2023-04-27T15:36:36.748Z,7.00
2023-04-27T15:39:09.956Z,6.30
2023-04-27T15:41:41.661Z,7.80
2023-04-27T15:44:12.273Z,6.90
2023-04-27T15:46:42.805Z,8.20
2023-04-27T15:49:13.559Z,7.50
2023-04-27T15:51:44.378Z,7.70
2023-04-27T15:54:14.868Z,5.90
2023-04-27T15:56:45.330Z,7.90
2023-04-27T15:59:16.157Z,9.10
2023-04-27T16:01:47.042Z,8.70
2023-04-27T16:04:17.618Z,8.60
2023-04-27T16:06:48.140Z,7.80
2023-04-27T16:09:19.091Z,7.40
2023-04-27T16:11:49.595Z,6.80
2023-04-27T16:14:20.028Z,6.30
2023-04-27T16:16:51.416Z,7.60
2023-04-27T16:19:22.716Z,7.60
2023-04-27T16:21:53.564Z,7.90
2023-04-27T16:24:24.024Z,15.90
2023-04-27T16:26:54.492Z,7.80
2023-04-27T16:29:24.936Z,6.10
2023-04-27T16:31:56.148Z,9.30
2023-04-27T16:34:26.973Z,5.20
2023-04-27T16:36:57.402Z,6.50
2023-04-27T16:39:27.956Z,5.60
2023-04-27T16:41:58.398Z,7.40
2023-04-27T16:44:28.885Z,5.80
2023-04-27T16:46:59.393Z,9.30
2023-04-27T16:49:29.881Z,5.90
2023-04-27T16:52:00.323Z,20.10
2023-04-27T16:54:30.833Z,11.60
2023-04-27T16:57:01.950Z,8.50
2023-04-27T16:59:33.160Z,9.70
2023-04-27T17:02:16.475Z,6.20
2023-04-27T17:04:54.139Z,6.70
2023-04-27T17:07:25.598Z,6.10
2023-04-27T17:09:56.171Z,6.30
2023-04-27T17:12:26.717Z,5.70
2023-04-27T17:14:57.151Z,5.50
2023-04-27T17:17:27.953Z,6.10
2023-04-27T17:19:58.478Z,9.40
2023-04-27T17:22:30.116Z,31.70
2023-04-27T17:25:00.590Z,13.00
2023-04-27T17:27:31.181Z,7.80
2023-04-27T17:30:01.917Z,6.90
2023-04-27T17:32:32.562Z,7.50
2023-04-27T17:35:03.466Z,7.10
2023-04-27T17:37:33.991Z,7.50
2023-04-27T17:40:06.107Z,7.10
2023-04-27T17:42:36.950Z,5.40
2023-04-27T17:45:09.321Z,7.60
2023-04-27T17:47:39.751Z,8.00
2023-04-27T17:50:12.031Z,7.00
2023-04-27T17:52:42.791Z,5.20
2023-04-27T17:55:13.340Z,8.90
2023-04-27T17:57:43.801Z,7.70
2023-04-27T18:00:18.113Z,8.10
2023-04-27T18:02:49.721Z,8.80
2023-04-27T18:05:20.489Z,9.60
2023-04-27T18:07:51.529Z,28.10
2023-04-27T18:10:22.017Z,28.90
2023-04-27T18:12:52.525Z,12.20
2023-04-27T18:15:23.085Z,9.60
2023-04-27T18:17:53.642Z,6.10
2023-04-27T18:20:25.619Z,7.20
2023-04-27T18:22:56.641Z,53.20
2023-04-27T18:25:27.066Z,22.20
2023-04-27T18:27:57.540Z,9.30
2023-04-27T18:30:28.675Z,7.80
2023-04-27T18:32:59.288Z,8.50
2023-04-27T18:35:29.948Z,6.40
2023-04-27T18:38:00.397Z,7.70
2023-04-27T18:40:30.910Z,7.50
2023-04-27T18:43:01.387Z,7.50
2023-04-27T18:45:32.075Z,6.90
2023-04-27T18:48:02.725Z,10.40
2023-04-27T18:50:33.279Z,8.00
2023-04-27T18:53:03.817Z,7.90
2023-04-27T18:55:34.247Z,9.80
2023-04-27T18:58:04.747Z,10.90
2023-04-27T19:00:35.279Z,8.40
2023-04-27T19:03:06.362Z,7.90
2023-04-27T19:05:37.540Z,8.30
2023-04-27T19:08:08.117Z,13.00
2023-04-27T19:10:41.240Z,8.50
2023-04-27T19:13:11.869Z,9.10
2023-04-27T19:15:42.331Z,7.50
2023-04-27T19:18:12.920Z,6.00
2023-04-27T19:20:43.659Z,10.30
2023-04-27T19:23:14.208Z,11.20
2023-04-27T19:25:45.171Z,11.20
2023-04-27T19:28:16.648Z,8.50
2023-04-27T19:30:47.300Z,10.10
2023-04-27T19:33:20.453Z,8.40
2023-04-27T19:35:52.470Z,9.30
2023-04-27T19:40:53.002Z,6.50
2023-04-27T19:43:23.741Z,8.90
2023-04-27T19:45:54.203Z,8.50
2023-04-27T19:48:26.275Z,6.90
2023-04-27T19:53:26.334Z,8.40
2023-04-27T19:55:58.857Z,10.80
2023-04-27T19:58:30.667Z,8.90
2023-04-27T20:01:01.106Z,9.40
2023-04-27T20:03:31.876Z,6.50
2023-04-27T20:06:02.936Z,12.10
2023-04-27T20:08:34.355Z,11.20
2023-04-27T20:11:04.793Z,9.00
2023-04-27T20:13:35.228Z,10.40
2023-04-27T20:16:06.696Z,8.30
2023-04-27T20:18:38.060Z,10.80
2023-04-27T20:21:08.642Z,13.10
2023-04-27T20:23:39.702Z,11.30
2023-04-27T20:26:10.149Z,11.20
2023-04-27T20:28:40.651Z,14.20
2023-04-27T20:31:11.123Z,14.00
2023-04-27T20:33:41.602Z,11.30
2023-04-27T20:36:17.087Z,9.10
2023-04-27T20:38:48.889Z,9.50
2023-04-27T20:41:19.317Z,10.90
2023-04-27T20:43:52.548Z,12.90
2023-04-27T20:46:23.078Z,13.40
2023-04-27T20:48:53.492Z,11.00
2023-04-27T20:51:24.004Z,12.70
2023-04-27T20:53:54.503Z,15.20
2023-04-27T20:56:26.002Z,14.20
2023-04-27T20:58:56.971Z,15.80
2023-04-27T21:01:27.699Z,14.00
2023-04-27T21:03:58.261Z,14.30
2023-04-27T21:06:28.781Z,14.60
2023-04-27T21:09:00.319Z,17.70
2023-04-27T21:11:30.978Z,12.10
2023-04-27T21:14:01.464Z,14.60
2023-04-27T21:16:32.004Z,15.10
2023-04-27T21:19:02.453Z,16.00
2023-04-27T21:21:32.870Z,19.80
2023-04-27T21:24:07.930Z,16.80
2023-04-27T21:26:39.152Z,11.70
2023-04-27T21:29:09.706Z,13.20
2023-04-27T21:31:40.219Z,16.50
2023-04-27T21:34:10.777Z,12.60
2023-04-27T21:36:41.198Z,14.40
2023-04-27T21:39:11.982Z,13.80
2023-04-27T21:41:42.491Z,16.10
2023-04-27T21:44:13.005Z,12.80
2023-04-27T21:46:43.744Z,17.00
2023-04-27T21:49:14.339Z,14.20
2023-04-27T21:51:44.834Z,15.80
2023-04-27T21:54:15.387Z,17.20
2023-04-27T21:56:46.238Z,15.60
2023-04-27T21:59:16.762Z,13.80
2023-04-27T22:01:47.232Z,14.20
2023-04-27T22:04:18.188Z,13.60
2023-04-27T22:06:49.027Z,14.60
2023-04-27T22:09:19.588Z,15.20
2023-04-27T22:11:50.122Z,15.00
2023-04-27T22:14:21.027Z,15.50
2023-04-27T22:16:51.470Z,16.30
2023-04-27T22:19:21.937Z,17.90
2023-04-27T22:21:52.394Z,17.80
2023-04-27T22:24:22.952Z,18.40
2023-04-27T22:26:53.484Z,18.40
2023-04-27T22:29:23.934Z,18.30
2023-04-27T22:31:54.442Z,20.40
2023-04-27T22:34:25.004Z,24.10
2023-04-27T22:36:55.558Z,20.50
2023-04-27T22:39:27.095Z,22.50
2023-04-27T22:41:57.897Z,21.90
2023-04-27T22:44:28.457Z,19.60
2023-04-27T22:47:00.802Z,22.10
2023-04-27T22:49:31.944Z,23.50
2023-04-27T22:52:02.357Z,24.70
2023-04-27T22:54:32.877Z,24.70
2023-04-27T22:57:04.541Z,20.30
2023-04-27T22:59:35.003Z,18.20
2023-04-27T23:02:06.183Z,21.30
2023-04-27T23:04:36.706Z,25.20
2023-04-27T23:07:07.174Z,22.10
2023-04-27T23:09:37.758Z,20.00
2023-04-27T23:12:09.044Z,22.60
2023-04-27T23:14:40.078Z,22.50
2023-04-27T23:17:11.788Z,24.60
2023-04-27T23:19:42.223Z,23.50
2023-04-27T23:22:12.717Z,22.80
2023-04-27T23:24:43.217Z,24.50
2023-04-27T23:27:13.710Z,22.70
2023-04-27T23:29:44.137Z,24.60
2023-04-27T23:32:14.615Z,24.90
2023-04-27T23:34:45.149Z,24.40
2023-04-27T23:37:15.614Z,26.00
2023-04-27T23:39:46.420Z,23.80
2023-04-27T23:42:16.893Z,21.10
2023-04-27T23:44:47.396Z,23.10
2023-04-27T23:47:17.853Z,23.90
2023-04-27T23:49:48.370Z,27.20
2023-04-27T23:52:18.834Z,23.10
2023-04-27T23:54:49.281Z,22.60
2023-04-27T23:57:19.720Z,24.80
2023-04-27T23:59:50.153Z,27.40
